Hoegh Berlin — C6XQ4 — position and weather

sailwx.info

Track history (hours):
 
Tides and Currents Weather Stations Pressure Air Temp Water Temp Dewpoint Dewpoint Depression Visibility Wind Speed Wind Dir Waves Ship Positions

Hoegh Berlin

Last reported at 2016-Dec-17 12:33 UTC. Time now 2017-Jan-17 23:23 UTC.
Position N 35°31' E 014°27'.
Warning: this ship's position is 31 days out of date.

Length 228 m; draft 9.2 m.

Type: Cargo ship. MMSI: 311019100.

Date/timePositionNaut miles runAvg speedWind from/ knotsBaromVisibWave heightAir tempDewpointWater temp
2016-Dec-17 12:33N 35°31' E 014°27'1514.8
2016-Dec-17 11:33N 35°40' E 014°12'1815.7
2016-Dec-17 10:24N 35°50' E 013°54'1312.9
2016-Dec-17 09:24N 35°57' E 013°41'  
2016-Dec-12 16:21N 36°37' W 023°29'1316.6
2016-Dec-12 15:33N 36°38' W 023°46'1717.1
2016-Dec-12 14:33N 36°39' W 024°07'1717.1
2016-Dec-12 13:33N 36°41' W 024°28'1717.1
2016-Dec-12 12:33N 36°41' W 024°50'1717.1
2016-Dec-12 11:33N 36°42' W 025°11'1717.2
2016-Dec-12 10:33N 36°43' W 025°32'1717.4
2016-Dec-12 09:34N 36°44' W 025°54'1717.3
2016-Dec-12 08:33N 36°44' W 026°15'1716.8
2016-Dec-12 07:33N 36°44' W 026°36'1716.8
2016-Dec-12 06:31N 36°45' W 026°58'1616.5
2016-Dec-12 05:33N 36°46' W 027°18'1816.9
2016-Dec-12 04:30N 36°48' W 027°40'1616.5
2016-Dec-12 03:32N 36°49' W 027°60'1616.2
2016-Dec-12 02:33N 36°50' W 028°20'1616.0
2016-Dec-12 01:34N 36°51' W 028°40'1616.3
2016-Dec-12 00:33N 36°52' W 029°00'1616.3
2016-Dec-11 23:33N 36°53' W 029°20'1616.2
2016-Dec-11 22:33N 36°54' W 029°40'1616.2
2016-Dec-11 21:33N 36°55' W 030°01'2316.2
2016-Dec-11 20:07N 36°55' W 030°30'1016.0
2016-Dec-11 19:29N 36°56' W 030°42'1516.2
2016-Dec-11 18:33N 36°56' W 031°01'1716.1
2016-Dec-11 17:31N 36°58' W 031°22'1616.2
2016-Dec-11 16:31N 36°59' W 031°42'1516.1
2016-Dec-11 15:34N 36°60' W 032°01'  
Track history (hours):
 
Tides and Currents Weather Stations Pressure Air Temp Water Temp Dewpoint Dewpoint Depression Visibility Wind Speed Wind Dir Waves Ship Positions

Hoegh Berlin

Last reported at 2016-Dec-17 12:33 UTC. Time now 2017-Jan-17 23:23 UTC.
Position N 35°31' E 014°27'.
Warning: this ship's position is 31 days out of date.

Length 228 m; draft 9.2 m.

Type: Cargo ship. MMSI: 311019100.

Date/timePositionNaut miles runAvg speedWind from/ knotsBaromVisibWave heightAir tempDewpointWater temp
2016-Dec-17 12:33N 35°31' E 014°27'1514.8
2016-Dec-17 11:33N 35°40' E 014°12'1815.7
2016-Dec-17 10:24N 35°50' E 013°54'1312.9
2016-Dec-17 09:24N 35°57' E 013°41'  
2016-Dec-12 16:21N 36°37' W 023°29'1316.6
2016-Dec-12 15:33N 36°38' W 023°46'1717.1
2016-Dec-12 14:33N 36°39' W 024°07'1717.1
2016-Dec-12 13:33N 36°41' W 024°28'1717.1
2016-Dec-12 12:33N 36°41' W 024°50'1717.1
2016-Dec-12 11:33N 36°42' W 025°11'1717.2
2016-Dec-12 10:33N 36°43' W 025°32'1717.4
2016-Dec-12 09:34N 36°44' W 025°54'1717.3
2016-Dec-12 08:33N 36°44' W 026°15'1716.8
2016-Dec-12 07:33N 36°44' W 026°36'1716.8
2016-Dec-12 06:31N 36°45' W 026°58'1616.5
2016-Dec-12 05:33N 36°46' W 027°18'1816.9
2016-Dec-12 04:30N 36°48' W 027°40'1616.5
2016-Dec-12 03:32N 36°49' W 027°60'1616.2
2016-Dec-12 02:33N 36°50' W 028°20'1616.0
2016-Dec-12 01:34N 36°51' W 028°40'1616.3
2016-Dec-12 00:33N 36°52' W 029°00'1616.3
2016-Dec-11 23:33N 36°53' W 029°20'1616.2
2016-Dec-11 22:33N 36°54' W 029°40'1616.2
2016-Dec-11 21:33N 36°55' W 030°01'2316.2
2016-Dec-11 20:07N 36°55' W 030°30'1016.0
2016-Dec-11 19:29N 36°56' W 030°42'1516.2
2016-Dec-11 18:33N 36°56' W 031°01'1716.1
2016-Dec-11 17:31N 36°58' W 031°22'1616.2
2016-Dec-11 16:31N 36°59' W 031°42'1516.1
2016-Dec-11 15:34N 36°60' W 032°01'  

Dump ship's entire track history